sensor_id;sensor_type;location;lat;lon;timestamp;P1;durP1;ratioP1;P2;durP2;ratioP2
10463;SDS011;5279;42.048;24.638;2023-02-22T00:01:42;3.30;;;1.60;;
10463;SDS011;5279;42.048;24.638;2023-02-22T00:04:15;2.53;;;1.50;;
10463;SDS011;5279;42.048;24.638;2023-02-22T00:06:45;1.63;;;1.53;;
10463;SDS011;5279;42.048;24.638;2023-02-22T00:09:13;1.70;;;1.40;;
10463;SDS011;5279;42.048;24.638;2023-02-22T00:11:46;3.47;;;2.10;;
10463;SDS011;5279;42.048;24.638;2023-02-22T00:14:14;1.90;;;1.70;;
10463;SDS011;5279;42.048;24.638;2023-02-22T00:16:51;5.10;;;1.90;;
10463;SDS011;5279;42.048;24.638;2023-02-22T00:19:20;2.37;;;1.33;;
10463;SDS011;5279;42.048;24.638;2023-02-22T00:21:50;2.70;;;2.00;;
10463;SDS011;5279;42.048;24.638;2023-02-22T00:24:18;2.07;;;1.80;;
10463;SDS011;5279;42.048;24.638;2023-02-22T00:26:50;2.73;;;1.80;;
10463;SDS011;5279;42.048;24.638;2023-02-22T00:29:19;4.23;;;2.00;;
10463;SDS011;5279;42.048;24.638;2023-02-22T00:31:47;1.73;;;1.53;;
10463;SDS011;5279;42.048;24.638;2023-02-22T00:34:14;2.73;;;1.73;;
10463;SDS011;5279;42.048;24.638;2023-02-22T00:36:44;2.67;;;2.10;;
10463;SDS011;5279;42.048;24.638;2023-02-22T00:39:12;3.77;;;1.87;;
10463;SDS011;5279;42.048;24.638;2023-02-22T00:41:40;2.13;;;1.93;;
10463;SDS011;5279;42.048;24.638;2023-02-22T00:44:08;1.90;;;1.70;;
10463;SDS011;5279;42.048;24.638;2023-02-22T00:46:35;2.90;;;1.93;;
10463;SDS011;5279;42.048;24.638;2023-02-22T00:49:02;3.53;;;2.00;;
10463;SDS011;5279;42.048;24.638;2023-02-22T00:51:29;3.00;;;2.07;;
10463;SDS011;5279;42.048;24.638;2023-02-22T00:53:58;2.83;;;1.97;;
10463;SDS011;5279;42.048;24.638;2023-02-22T00:56:25;3.17;;;2.33;;
10463;SDS011;5279;42.048;24.638;2023-02-22T00:58:52;2.40;;;2.20;;
10463;SDS011;5279;42.048;24.638;2023-02-22T01:01:20;2.00;;;1.80;;
10463;SDS011;5279;42.048;24.638;2023-02-22T01:03:48;2.40;;;1.83;;
10463;SDS011;5279;42.048;24.638;2023-02-22T01:06:14;3.70;;;2.00;;
10463;SDS011;5279;42.048;24.638;2023-02-22T01:08:42;2.07;;;1.60;;
10463;SDS011;5279;42.048;24.638;2023-02-22T01:11:10;4.20;;;2.17;;
10463;SDS011;5279;42.048;24.638;2023-02-22T01:13:37;2.70;;;2.03;;
10463;SDS011;5279;42.048;24.638;2023-02-22T01:16:04;3.37;;;2.17;;
10463;SDS011;5279;42.048;24.638;2023-02-22T01:18:33;4.13;;;2.23;;
10463;SDS011;5279;42.048;24.638;2023-02-22T01:21:00;3.87;;;2.30;;
10463;SDS011;5279;42.048;24.638;2023-02-22T01:23:28;3.43;;;2.10;;
10463;SDS011;5279;42.048;24.638;2023-02-22T01:25:55;3.60;;;2.10;;
10463;SDS011;5279;42.048;24.638;2023-02-22T01:28:22;2.90;;;1.77;;
10463;SDS011;5279;42.048;24.638;2023-02-22T01:30:49;3.60;;;2.50;;
10463;SDS011;5279;42.048;24.638;2023-02-22T01:33:15;2.17;;;1.97;;
10463;SDS011;5279;42.048;24.638;2023-02-22T01:35:44;3.60;;;2.17;;
10463;SDS011;5279;42.048;24.638;2023-02-22T01:38:11;2.63;;;2.13;;
10463;SDS011;5279;42.048;24.638;2023-02-22T01:40:40;2.70;;;2.17;;
10463;SDS011;5279;42.048;24.638;2023-02-22T01:43:14;2.47;;;1.90;;
10463;SDS011;5279;42.048;24.638;2023-02-22T01:45:47;3.00;;;1.93;;
10463;SDS011;5279;42.048;24.638;2023-02-22T01:48:19;4.53;;;1.90;;
10463;SDS011;5279;42.048;24.638;2023-02-22T01:50:53;4.47;;;1.80;;
10463;SDS011;5279;42.048;24.638;2023-02-22T01:53:22;3.27;;;2.00;;
10463;SDS011;5279;42.048;24.638;2023-02-22T01:55:52;3.83;;;2.23;;
10463;SDS011;5279;42.048;24.638;2023-02-22T01:58:20;3.77;;;2.30;;
10463;SDS011;5279;42.048;24.638;2023-02-22T02:00:49;6.40;;;1.97;;
10463;SDS011;5279;42.048;24.638;2023-02-22T02:03:17;2.70;;;1.90;;
10463;SDS011;5279;42.048;24.638;2023-02-22T02:05:48;2.70;;;2.13;;
10463;SDS011;5279;42.048;24.638;2023-02-22T02:08:22;2.67;;;2.00;;
10463;SDS011;5279;42.048;24.638;2023-02-22T02:10:56;3.30;;;2.13;;
10463;SDS011;5279;42.048;24.638;2023-02-22T02:13:25;3.33;;;2.10;;
10463;SDS011;5279;42.048;24.638;2023-02-22T02:16:06;5.63;;;2.00;;
10463;SDS011;5279;42.048;24.638;2023-02-22T02:18:33;2.37;;;1.87;;
10463;SDS011;5279;42.048;24.638;2023-02-22T02:21:12;2.30;;;1.87;;
10463;SDS011;5279;42.048;24.638;2023-02-22T02:27:14;2.53;;;1.70;;
10463;SDS011;5279;42.048;24.638;2023-02-22T02:30:09;2.60;;;1.90;;
10463;SDS011;5279;42.048;24.638;2023-02-22T02:33:07;2.77;;;2.07;;
10463;SDS011;5279;42.048;24.638;2023-02-22T02:35:50;2.40;;;1.90;;
10463;SDS011;5279;42.048;24.638;2023-02-22T02:38:27;2.30;;;1.70;;
10463;SDS011;5279;42.048;24.638;2023-02-22T02:41:02;3.53;;;2.00;;
10463;SDS011;5279;42.048;24.638;2023-02-22T02:43:36;1.87;;;1.67;;
10463;SDS011;5279;42.048;24.638;2023-02-22T02:46:08;2.40;;;1.80;;
10463;SDS011;5279;42.048;24.638;2023-02-22T02:48:39;2.33;;;2.03;;
10463;SDS011;5279;42.048;24.638;2023-02-22T02:51:10;2.47;;;1.77;;
10463;SDS011;5279;42.048;24.638;2023-02-22T02:53:41;2.63;;;1.70;;
10463;SDS011;5279;42.048;24.638;2023-02-22T02:56:11;1.73;;;1.53;;
10463;SDS011;5279;42.048;24.638;2023-02-22T02:58:43;2.10;;;1.30;;
10463;SDS011;5279;42.048;24.638;2023-02-22T03:01:13;2.23;;;1.40;;
10463;SDS011;5279;42.048;24.638;2023-02-22T03:03:57;1.10;;;1.00;;
10463;SDS011;5279;42.048;24.638;2023-02-22T03:06:46;1.97;;;1.20;;
10463;SDS011;5279;42.048;24.638;2023-02-22T03:09:26;1.40;;;1.30;;
10463;SDS011;5279;42.048;24.638;2023-02-22T03:12:06;1.10;;;1.00;;
10463;SDS011;5279;42.048;24.638;2023-02-22T03:14:49;1.33;;;1.23;;
10463;SDS011;5279;42.048;24.638;2023-02-22T03:17:25;3.93;;;1.10;;
10463;SDS011;5279;42.048;24.638;2023-02-22T03:20:03;1.20;;;1.10;;
10463;SDS011;5279;42.048;24.638;2023-02-22T03:22:36;1.30;;;1.13;;
10463;SDS011;5279;42.048;24.638;2023-02-22T03:25:13;0.93;;;0.90;;
10463;SDS011;5279;42.048;24.638;2023-02-22T03:27:46;2.63;;;1.00;;
10463;SDS011;5279;42.048;24.638;2023-02-22T03:30:18;1.53;;;1.10;;
10463;SDS011;5279;42.048;24.638;2023-02-22T03:32:50;0.90;;;0.90;;
10463;SDS011;5279;42.048;24.638;2023-02-22T03:35:23;1.30;;;0.70;;
10463;SDS011;5279;42.048;24.638;2023-02-22T03:37:58;1.63;;;0.90;;
10463;SDS011;5279;42.048;24.638;2023-02-22T03:40:30;1.37;;;1.23;;
10463;SDS011;5279;42.048;24.638;2023-02-22T03:43:01;0.83;;;0.83;;
10463;SDS011;5279;42.048;24.638;2023-02-22T03:45:32;0.90;;;0.90;;
10463;SDS011;5279;42.048;24.638;2023-02-22T03:48:02;2.93;;;0.80;;
10463;SDS011;5279;42.048;24.638;2023-02-22T03:50:36;0.80;;;0.80;;
10463;SDS011;5279;42.048;24.638;2023-02-22T03:53:10;0.90;;;0.90;;
10463;SDS011;5279;42.048;24.638;2023-02-22T03:55:37;1.30;;;1.20;;
10463;SDS011;5279;42.048;24.638;2023-02-22T03:58:04;0.80;;;0.80;;
10463;SDS011;5279;42.048;24.638;2023-02-22T04:00:35;1.43;;;0.80;;
10463;SDS011;5279;42.048;24.638;2023-02-22T04:03:02;0.93;;;0.93;;
10463;SDS011;5279;42.048;24.638;2023-02-22T04:05:30;1.57;;;1.10;;
10463;SDS011;5279;42.048;24.638;2023-02-22T04:08:00;1.93;;;0.93;;
10463;SDS011;5279;42.048;24.638;2023-02-22T04:10:27;1.87;;;0.90;;
10463;SDS011;5279;42.048;24.638;2023-02-22T04:12:54;0.80;;;0.80;;
10463;SDS011;5279;42.048;24.638;2023-02-22T04:15:24;0.83;;;0.77;;
10463;SDS011;5279;42.048;24.638;2023-02-22T04:17:50;0.83;;;0.73;;
10463;SDS011;5279;42.048;24.638;2023-02-22T04:20:17;1.60;;;0.70;;
10463;SDS011;5279;42.048;24.638;2023-02-22T04:22:49;1.40;;;0.77;;
10463;SDS011;5279;42.048;24.638;2023-02-22T04:25:18;1.70;;;0.80;;
10463;SDS011;5279;42.048;24.638;2023-02-22T04:27:44;0.80;;;0.80;;
10463;SDS011;5279;42.048;24.638;2023-02-22T04:30:12;1.10;;;0.60;;
10463;SDS011;5279;42.048;24.638;2023-02-22T04:32:44;0.70;;;0.60;;
10463;SDS011;5279;42.048;24.638;2023-02-22T04:35:11;1.00;;;0.70;;
10463;SDS011;5279;42.048;24.638;2023-02-22T04:37:43;0.80;;;0.73;;
10463;SDS011;5279;42.048;24.638;2023-02-22T04:40:10;0.80;;;0.67;;
10463;SDS011;5279;42.048;24.638;2023-02-22T04:42:38;1.20;;;0.63;;
10463;SDS011;5279;42.048;24.638;2023-02-22T04:45:06;1.37;;;0.80;;
10463;SDS011;5279;42.048;24.638;2023-02-22T04:47:34;0.70;;;0.70;;
10463;SDS011;5279;42.048;24.638;2023-02-22T04:50:05;1.40;;;1.10;;
10463;SDS011;5279;42.048;24.638;2023-02-22T04:52:33;0.80;;;0.80;;
10463;SDS011;5279;42.048;24.638;2023-02-22T04:55:00;1.67;;;1.00;;
10463;SDS011;5279;42.048;24.638;2023-02-22T04:57:27;0.80;;;0.73;;
10463;SDS011;5279;42.048;24.638;2023-02-22T04:59:55;0.90;;;0.90;;
10463;SDS011;5279;42.048;24.638;2023-02-22T05:02:22;1.73;;;0.77;;
10463;SDS011;5279;42.048;24.638;2023-02-22T05:04:49;1.23;;;0.70;;
10463;SDS011;5279;42.048;24.638;2023-02-22T05:07:15;0.90;;;0.67;;
10463;SDS011;5279;42.048;24.638;2023-02-22T05:09:42;0.70;;;0.70;;
10463;SDS011;5279;42.048;24.638;2023-02-22T05:12:09;0.70;;;0.70;;
10463;SDS011;5279;42.048;24.638;2023-02-22T05:14:36;1.93;;;0.60;;
10463;SDS011;5279;42.048;24.638;2023-02-22T05:17:04;0.73;;;0.73;;
10463;SDS011;5279;42.048;24.638;2023-02-22T05:19:31;1.10;;;0.90;;
10463;SDS011;5279;42.048;24.638;2023-02-22T05:21:58;1.63;;;0.90;;
10463;SDS011;5279;42.048;24.638;2023-02-22T05:24:25;1.57;;;0.70;;
10463;SDS011;5279;42.048;24.638;2023-02-22T05:26:52;1.73;;;0.70;;
10463;SDS011;5279;42.048;24.638;2023-02-22T05:29:18;0.87;;;0.60;;
10463;SDS011;5279;42.048;24.638;2023-02-22T05:31:46;0.90;;;0.90;;
10463;SDS011;5279;42.048;24.638;2023-02-22T05:34:14;0.73;;;0.73;;
10463;SDS011;5279;42.048;24.638;2023-02-22T05:36:41;0.80;;;0.50;;
10463;SDS011;5279;42.048;24.638;2023-02-22T05:39:09;1.40;;;0.90;;
10463;SDS011;5279;42.048;24.638;2023-02-22T05:41:36;2.10;;;0.90;;
10463;SDS011;5279;42.048;24.638;2023-02-22T05:44:03;0.70;;;0.70;;
10463;SDS011;5279;42.048;24.638;2023-02-22T05:46:30;2.20;;;0.73;;
10463;SDS011;5279;42.048;24.638;2023-02-22T05:48:57;1.37;;;0.80;;
10463;SDS011;5279;42.048;24.638;2023-02-22T05:51:25;0.90;;;0.90;;
10463;SDS011;5279;42.048;24.638;2023-02-22T05:53:52;1.20;;;0.80;;
10463;SDS011;5279;42.048;24.638;2023-02-22T05:56:19;1.00;;;0.80;;
10463;SDS011;5279;42.048;24.638;2023-02-22T05:58:47;0.80;;;0.80;;
10463;SDS011;5279;42.048;24.638;2023-02-22T06:01:14;1.00;;;0.90;;
10463;SDS011;5279;42.048;24.638;2023-02-22T06:03:42;0.70;;;0.70;;
10463;SDS011;5279;42.048;24.638;2023-02-22T06:06:11;1.97;;;0.80;;
10463;SDS011;5279;42.048;24.638;2023-02-22T06:08:39;0.70;;;0.70;;
10463;SDS011;5279;42.048;24.638;2023-02-22T06:11:06;1.27;;;1.00;;
10463;SDS011;5279;42.048;24.638;2023-02-22T06:13:34;0.73;;;0.70;;
10463;SDS011;5279;42.048;24.638;2023-02-22T06:16:01;0.70;;;0.60;;
10463;SDS011;5279;42.048;24.638;2023-02-22T06:18:27;1.10;;;0.90;;
10463;SDS011;5279;42.048;24.638;2023-02-22T06:20:55;0.97;;;0.90;;
10463;SDS011;5279;42.048;24.638;2023-02-22T06:23:22;4.10;;;0.80;;
10463;SDS011;5279;42.048;24.638;2023-02-22T06:25:50;0.93;;;0.83;;
10463;SDS011;5279;42.048;24.638;2023-02-22T06:28:24;1.13;;;1.00;;
10463;SDS011;5279;42.048;24.638;2023-02-22T06:30:51;1.27;;;0.77;;
10463;SDS011;5279;42.048;24.638;2023-02-22T06:33:18;0.80;;;0.63;;
10463;SDS011;5279;42.048;24.638;2023-02-22T06:35:45;1.77;;;0.80;;
10463;SDS011;5279;42.048;24.638;2023-02-22T06:38:17;1.83;;;0.73;;
10463;SDS011;5279;42.048;24.638;2023-02-22T06:40:51;2.67;;;0.80;;
10463;SDS011;5279;42.048;24.638;2023-02-22T06:43:19;3.53;;;0.83;;
10463;SDS011;5279;42.048;24.638;2023-02-22T06:45:46;0.70;;;0.70;;
10463;SDS011;5279;42.048;24.638;2023-02-22T06:48:13;1.00;;;0.70;;
10463;SDS011;5279;42.048;24.638;2023-02-22T06:50:40;0.70;;;0.70;;
10463;SDS011;5279;42.048;24.638;2023-02-22T06:53:07;0.77;;;0.70;;
10463;SDS011;5279;42.048;24.638;2023-02-22T06:55:37;0.80;;;0.73;;
10463;SDS011;5279;42.048;24.638;2023-02-22T06:58:05;1.60;;;0.97;;
10463;SDS011;5279;42.048;24.638;2023-02-22T07:00:33;0.77;;;0.77;;
10463;SDS011;5279;42.048;24.638;2023-02-22T07:02:59;1.80;;;0.80;;
10463;SDS011;5279;42.048;24.638;2023-02-22T07:05:27;1.13;;;0.87;;
10463;SDS011;5279;42.048;24.638;2023-02-22T07:07:55;0.80;;;0.80;;
10463;SDS011;5279;42.048;24.638;2023-02-22T07:10:29;1.70;;;0.90;;
10463;SDS011;5279;42.048;24.638;2023-02-22T07:12:57;1.07;;;0.73;;
10463;SDS011;5279;42.048;24.638;2023-02-22T07:15:26;1.03;;;0.70;;
10463;SDS011;5279;42.048;24.638;2023-02-22T07:17:55;1.23;;;0.67;;
10463;SDS011;5279;42.048;24.638;2023-02-22T07:20:23;0.80;;;0.80;;
10463;SDS011;5279;42.048;24.638;2023-02-22T07:22:51;0.57;;;0.53;;
10463;SDS011;5279;42.048;24.638;2023-02-22T07:25:18;0.77;;;0.77;;
10463;SDS011;5279;42.048;24.638;2023-02-22T07:27:45;1.03;;;0.80;;
10463;SDS011;5279;42.048;24.638;2023-02-22T07:30:16;1.00;;;0.80;;
10463;SDS011;5279;42.048;24.638;2023-02-22T07:32:45;0.80;;;0.80;;
10463;SDS011;5279;42.048;24.638;2023-02-22T07:35:13;1.33;;;0.70;;
10463;SDS011;5279;42.048;24.638;2023-02-22T07:37:41;0.90;;;0.90;;
10463;SDS011;5279;42.048;24.638;2023-02-22T07:40:09;0.87;;;0.80;;
10463;SDS011;5279;42.048;24.638;2023-02-22T07:42:48;1.23;;;0.70;;
10463;SDS011;5279;42.048;24.638;2023-02-22T07:45:16;0.90;;;0.90;;
10463;SDS011;5279;42.048;24.638;2023-02-22T07:47:53;0.70;;;0.70;;
10463;SDS011;5279;42.048;24.638;2023-02-22T07:50:20;2.20;;;0.90;;
10463;SDS011;5279;42.048;24.638;2023-02-22T07:52:48;3.67;;;0.90;;
10463;SDS011;5279;42.048;24.638;2023-02-22T07:55:18;1.07;;;0.80;;
10463;SDS011;5279;42.048;24.638;2023-02-22T07:57:46;1.50;;;0.73;;
10463;SDS011;5279;42.048;24.638;2023-02-22T08:00:14;1.10;;;0.97;;
10463;SDS011;5279;42.048;24.638;2023-02-22T08:02:48;0.60;;;0.60;;
10463;SDS011;5279;42.048;24.638;2023-02-22T08:05:15;0.80;;;0.80;;
10463;SDS011;5279;42.048;24.638;2023-02-22T08:07:43;0.70;;;0.70;;
10463;SDS011;5279;42.048;24.638;2023-02-22T08:10:12;0.87;;;0.70;;
10463;SDS011;5279;42.048;24.638;2023-02-22T08:12:40;0.70;;;0.70;;
10463;SDS011;5279;42.048;24.638;2023-02-22T08:15:07;0.73;;;0.73;;
10463;SDS011;5279;42.048;24.638;2023-02-22T08:17:40;1.03;;;0.83;;
10463;SDS011;5279;42.048;24.638;2023-02-22T08:20:08;0.70;;;0.70;;
10463;SDS011;5279;42.048;24.638;2023-02-22T08:22:35;1.37;;;0.83;;
10463;SDS011;5279;42.048;24.638;2023-02-22T08:25:02;2.87;;;0.73;;
10463;SDS011;5279;42.048;24.638;2023-02-22T08:27:29;0.93;;;0.80;;
10463;SDS011;5279;42.048;24.638;2023-02-22T08:29:57;1.80;;;1.00;;
10463;SDS011;5279;42.048;24.638;2023-02-22T08:32:25;1.50;;;1.10;;
10463;SDS011;5279;42.048;24.638;2023-02-22T08:34:51;0.97;;;0.80;;
10463;SDS011;5279;42.048;24.638;2023-02-22T08:37:20;0.97;;;0.93;;
10463;SDS011;5279;42.048;24.638;2023-02-22T08:39:47;1.37;;;0.90;;
10463;SDS011;5279;42.048;24.638;2023-02-22T08:42:14;0.80;;;0.80;;
10463;SDS011;5279;42.048;24.638;2023-02-22T08:44:40;0.80;;;0.80;;
10463;SDS011;5279;42.048;24.638;2023-02-22T08:47:07;1.53;;;1.03;;
10463;SDS011;5279;42.048;24.638;2023-02-22T08:49:34;1.10;;;1.00;;
10463;SDS011;5279;42.048;24.638;2023-02-22T08:52:07;1.80;;;0.97;;
10463;SDS011;5279;42.048;24.638;2023-02-22T08:54:35;1.17;;;1.03;;
10463;SDS011;5279;42.048;24.638;2023-02-22T08:57:02;1.03;;;0.80;;
10463;SDS011;5279;42.048;24.638;2023-02-22T08:59:30;0.90;;;0.87;;
10463;SDS011;5279;42.048;24.638;2023-02-22T09:01:56;1.40;;;1.10;;
10463;SDS011;5279;42.048;24.638;2023-02-22T09:04:24;0.70;;;0.70;;
10463;SDS011;5279;42.048;24.638;2023-02-22T09:06:50;2.03;;;1.10;;
10463;SDS011;5279;42.048;24.638;2023-02-22T09:09:17;0.83;;;0.83;;
10463;SDS011;5279;42.048;24.638;2023-02-22T09:11:47;1.37;;;0.70;;
10463;SDS011;5279;42.048;24.638;2023-02-22T09:14:14;2.37;;;0.80;;
10463;SDS011;5279;42.048;24.638;2023-02-22T09:16:42;1.27;;;0.73;;
10463;SDS011;5279;42.048;24.638;2023-02-22T09:19:09;1.20;;;0.90;;
10463;SDS011;5279;42.048;24.638;2023-02-22T09:21:36;1.33;;;0.67;;
10463;SDS011;5279;42.048;24.638;2023-02-22T09:24:04;1.13;;;0.87;;
10463;SDS011;5279;42.048;24.638;2023-02-22T09:26:33;0.90;;;0.90;;
10463;SDS011;5279;42.048;24.638;2023-02-22T09:29:04;1.90;;;0.80;;
10463;SDS011;5279;42.048;24.638;2023-02-22T09:31:34;1.80;;;0.90;;
10463;SDS011;5279;42.048;24.638;2023-02-22T09:34:01;1.77;;;0.80;;
10463;SDS011;5279;42.048;24.638;2023-02-22T09:36:31;2.30;;;0.80;;
10463;SDS011;5279;42.048;24.638;2023-02-22T09:38:58;0.93;;;0.83;;
10463;SDS011;5279;42.048;24.638;2023-02-22T09:41:26;1.00;;;0.80;;
10463;SDS011;5279;42.048;24.638;2023-02-22T09:44:02;0.73;;;0.70;;
10463;SDS011;5279;42.048;24.638;2023-02-22T09:46:41;0.73;;;0.73;;
10463;SDS011;5279;42.048;24.638;2023-02-22T09:49:15;0.95;;;0.95;;
10463;SDS011;5279;42.048;24.638;2023-02-22T09:51:47;1.48;;;0.80;;
10463;SDS011;5279;42.048;24.638;2023-02-22T09:54:20;1.77;;;0.70;;
10463;SDS011;5279;42.048;24.638;2023-02-22T09:56:51;1.95;;;0.93;;
10463;SDS011;5279;42.048;24.638;2023-02-22T09:59:23;0.70;;;0.70;;
10463;SDS011;5279;42.048;24.638;2023-02-22T10:01:57;0.80;;;0.70;;
10463;SDS011;5279;42.048;24.638;2023-02-22T10:04:35;0.75;;;0.75;;
10463;SDS011;5279;42.048;24.638;2023-02-22T10:07:10;1.83;;;0.75;;
10463;SDS011;5279;42.048;24.638;2023-02-22T10:09:42;0.80;;;0.80;;
10463;SDS011;5279;42.048;24.638;2023-02-22T10:12:13;1.67;;;0.90;;
10463;SDS011;5279;42.048;24.638;2023-02-22T10:14:55;2.08;;;0.68;;
10463;SDS011;5279;42.048;24.638;2023-02-22T10:17:49;1.77;;;0.90;;
10463;SDS011;5279;42.048;24.638;2023-02-22T10:20:33;2.83;;;0.80;;
10463;SDS011;5279;42.048;24.638;2023-02-22T10:23:10;0.73;;;0.73;;
10463;SDS011;5279;42.048;24.638;2023-02-22T10:25:44;1.08;;;0.75;;
10463;SDS011;5279;42.048;24.638;2023-02-22T10:28:18;0.90;;;0.90;;
10463;SDS011;5279;42.048;24.638;2023-02-22T10:30:51;1.77;;;0.97;;
10463;SDS011;5279;42.048;24.638;2023-02-22T10:33:23;2.30;;;0.80;;
10463;SDS011;5279;42.048;24.638;2023-02-22T10:35:56;1.47;;;1.10;;
10463;SDS011;5279;42.048;24.638;2023-02-22T10:38:24;0.80;;;0.80;;
10463;SDS011;5279;42.048;24.638;2023-02-22T10:40:53;0.95;;;0.77;;
10463;SDS011;5279;42.048;24.638;2023-02-22T10:43:23;1.05;;;0.95;;
10463;SDS011;5279;42.048;24.638;2023-02-22T10:45:52;1.08;;;0.98;;
10463;SDS011;5279;42.048;24.638;2023-02-22T10:48:24;0.80;;;0.80;;
10463;SDS011;5279;42.048;24.638;2023-02-22T10:50:56;2.30;;;0.90;;
10463;SDS011;5279;42.048;24.638;2023-02-22T10:53:26;1.10;;;1.00;;
10463;SDS011;5279;42.048;24.638;2023-02-22T10:56:06;1.35;;;0.93;;
10463;SDS011;5279;42.048;24.638;2023-02-22T10:58:38;1.10;;;1.00;;
10463;SDS011;5279;42.048;24.638;2023-02-22T11:01:18;1.77;;;1.13;;
10463;SDS011;5279;42.048;24.638;2023-02-22T11:04:03;2.35;;;0.98;;
10463;SDS011;5279;42.048;24.638;2023-02-22T11:06:36;1.80;;;0.90;;
10463;SDS011;5279;42.048;24.638;2023-02-22T11:09:04;1.35;;;1.00;;
10463;SDS011;5279;42.048;24.638;2023-02-22T11:11:35;0.98;;;0.98;;
10463;SDS011;5279;42.048;24.638;2023-02-22T11:14:03;1.80;;;0.93;;
10463;SDS011;5279;42.048;24.638;2023-02-22T11:16:33;1.70;;;0.90;;
10463;SDS011;5279;42.048;24.638;2023-02-22T11:19:04;1.17;;;1.08;;
10463;SDS011;5279;42.048;24.638;2023-02-22T11:21:41;1.08;;;1.08;;
10463;SDS011;5279;42.048;24.638;2023-02-22T11:24:10;2.03;;;0.77;;
10463;SDS011;5279;42.048;24.638;2023-02-22T11:26:40;0.68;;;0.68;;
10463;SDS011;5279;42.048;24.638;2023-02-22T11:29:10;2.25;;;1.00;;
10463;SDS011;5279;42.048;24.638;2023-02-22T11:31:44;1.08;;;1.00;;
10463;SDS011;5279;42.048;24.638;2023-02-22T11:34:27;1.13;;;0.80;;
10463;SDS011;5279;42.048;24.638;2023-02-22T11:36:59;1.23;;;1.00;;
10463;SDS011;5279;42.048;24.638;2023-02-22T11:39:41;4.00;;;0.90;;
10463;SDS011;5279;42.048;24.638;2023-02-22T11:42:21;2.40;;;1.00;;
10463;SDS011;5279;42.048;24.638;2023-02-22T11:44:52;0.80;;;0.80;;
10463;SDS011;5279;42.048;24.638;2023-02-22T11:47:36;1.42;;;0.82;;
10463;SDS011;5279;42.048;24.638;2023-02-22T11:50:26;1.17;;;0.82;;
10463;SDS011;5279;42.048;24.638;2023-02-22T11:55:52;0.80;;;0.80;;
10463;SDS011;5279;42.048;24.638;2023-02-22T11:58:33;2.10;;;0.80;;
10463;SDS011;5279;42.048;24.638;2023-02-22T12:01:10;3.88;;;0.90;;
10463;SDS011;5279;42.048;24.638;2023-02-22T12:03:50;1.15;;;0.80;;
10463;SDS011;5279;42.048;24.638;2023-02-22T12:06:31;1.15;;;0.90;;
10463;SDS011;5279;42.048;24.638;2023-02-22T12:09:08;0.90;;;0.90;;
10463;SDS011;5279;42.048;24.638;2023-02-22T12:11:44;1.30;;;1.20;;
10463;SDS011;5279;42.048;24.638;2023-02-22T12:14:22;1.30;;;1.20;;
10463;SDS011;5279;42.048;24.638;2023-02-22T12:19:46;3.65;;;1.30;;
10463;SDS011;5279;42.048;24.638;2023-02-22T12:22:16;4.80;;;1.20;;
10463;SDS011;5279;42.048;24.638;2023-02-22T12:24:50;2.65;;;1.10;;
10463;SDS011;5279;42.048;24.638;2023-02-22T12:27:22;1.35;;;1.10;;
10463;SDS011;5279;42.048;24.638;2023-02-22T12:29:54;1.48;;;1.00;;
10463;SDS011;5279;42.048;24.638;2023-02-22T12:32:27;2.47;;;1.10;;
10463;SDS011;5279;42.048;24.638;2023-02-22T12:35:02;1.55;;;1.30;;
10463;SDS011;5279;42.048;24.638;2023-02-22T12:37:37;1.23;;;1.13;;
10463;SDS011;5279;42.048;24.638;2023-02-22T12:40:15;1.20;;;1.10;;
10463;SDS011;5279;42.048;24.638;2023-02-22T12:42:51;0.85;;;0.85;;
10463;SDS011;5279;42.048;24.638;2023-02-22T12:45:27;1.17;;;1.00;;
10463;SDS011;5279;42.048;24.638;2023-02-22T12:48:03;2.45;;;1.20;;
10463;SDS011;5279;42.048;24.638;2023-02-22T12:50:44;1.13;;;1.02;;
10463;SDS011;5279;42.048;24.638;2023-02-22T12:53:15;1.10;;;1.00;;
10463;SDS011;5279;42.048;24.638;2023-02-22T12:55:46;2.10;;;1.13;;
10463;SDS011;5279;42.048;24.638;2023-02-22T12:58:18;1.10;;;1.00;;
10463;SDS011;5279;42.048;24.638;2023-02-22T13:00:50;1.95;;;0.95;;
10463;SDS011;5279;42.048;24.638;2023-02-22T13:03:35;3.50;;;1.00;;
10463;SDS011;5279;42.048;24.638;2023-02-22T13:06:11;1.10;;;1.00;;
10463;SDS011;5279;42.048;24.638;2023-02-22T13:09:01;2.35;;;1.20;;
10463;SDS011;5279;42.048;24.638;2023-02-22T13:11:40;1.65;;;1.35;;
10463;SDS011;5279;42.048;24.638;2023-02-22T13:14:28;1.88;;;1.08;;
10463;SDS011;5279;42.048;24.638;2023-02-22T13:17:04;1.42;;;0.98;;
10463;SDS011;5279;42.048;24.638;2023-02-22T13:19:46;3.22;;;1.20;;
10463;SDS011;5279;42.048;24.638;2023-02-22T13:22:20;0.90;;;0.90;;
10463;SDS011;5279;42.048;24.638;2023-02-22T13:24:55;1.30;;;1.00;;
10463;SDS011;5279;42.048;24.638;2023-02-22T13:27:29;1.60;;;0.90;;
10463;SDS011;5279;42.048;24.638;2023-02-22T13:30:03;1.42;;;1.20;;
10463;SDS011;5279;42.048;24.638;2023-02-22T13:32:40;1.80;;;1.10;;
10463;SDS011;5279;42.048;24.638;2023-02-22T13:38:29;1.13;;;1.02;;
10463;SDS011;5279;42.048;24.638;2023-02-22T13:41:21;1.00;;;0.93;;
10463;SDS011;5279;42.048;24.638;2023-02-22T13:44:17;0.80;;;0.80;;
10463;SDS011;5279;42.048;24.638;2023-02-22T13:47:09;1.50;;;1.13;;
10463;SDS011;5279;42.048;24.638;2023-02-22T13:49:51;4.35;;;1.10;;
10463;SDS011;5279;42.048;24.638;2023-02-22T13:52:28;1.77;;;1.05;;
10463;SDS011;5279;42.048;24.638;2023-02-22T13:54:58;1.63;;;1.20;;
10463;SDS011;5279;42.048;24.638;2023-02-22T13:57:28;1.75;;;1.05;;
10463;SDS011;5279;42.048;24.638;2023-02-22T14:03:05;1.30;;;1.20;;
10463;SDS011;5279;42.048;24.638;2023-02-22T14:05:54;2.20;;;1.48;;
10463;SDS011;5279;42.048;24.638;2023-02-22T14:08:40;1.25;;;1.15;;
10463;SDS011;5279;42.048;24.638;2023-02-22T14:14:19;1.45;;;1.30;;
10463;SDS011;5279;42.048;24.638;2023-02-22T14:20:05;1.92;;;1.20;;
10463;SDS011;5279;42.048;24.638;2023-02-22T14:22:45;1.92;;;1.15;;
10463;SDS011;5279;42.048;24.638;2023-02-22T14:25:36;2.35;;;1.10;;
10463;SDS011;5279;42.048;24.638;2023-02-22T14:28:05;1.48;;;1.38;;
10463;SDS011;5279;42.048;24.638;2023-02-22T14:30:36;1.48;;;1.10;;
10463;SDS011;5279;42.048;24.638;2023-02-22T14:36:16;2.33;;;1.50;;
10463;SDS011;5279;42.048;24.638;2023-02-22T14:38:46;1.42;;;1.30;;
10463;SDS011;5279;42.048;24.638;2023-02-22T14:41:16;1.52;;;1.20;;
10463;SDS011;5279;42.048;24.638;2023-02-22T14:43:44;1.58;;;1.30;;
10463;SDS011;5279;42.048;24.638;2023-02-22T14:46:20;1.92;;;1.23;;
10463;SDS011;5279;42.048;24.638;2023-02-22T14:48:50;2.92;;;1.35;;
10463;SDS011;5279;42.048;24.638;2023-02-22T14:51:25;1.85;;;1.40;;
10463;SDS011;5279;42.048;24.638;2023-02-22T14:53:55;3.50;;;1.30;;
10463;SDS011;5279;42.048;24.638;2023-02-22T14:56:30;3.70;;;1.30;;
10463;SDS011;5279;42.048;24.638;2023-02-22T14:59:10;2.80;;;1.58;;
10463;SDS011;5279;42.048;24.638;2023-02-22T15:01:43;1.77;;;1.45;;
10463;SDS011;5279;42.048;24.638;2023-02-22T15:04:18;2.40;;;1.27;;
10463;SDS011;5279;42.048;24.638;2023-02-22T15:06:47;2.10;;;1.50;;
10463;SDS011;5279;42.048;24.638;2023-02-22T15:09:15;1.85;;;1.65;;
10463;SDS011;5279;42.048;24.638;2023-02-22T15:11:48;1.60;;;1.30;;
10463;SDS011;5279;42.048;24.638;2023-02-22T15:14:17;1.30;;;1.20;;
10463;SDS011;5279;42.048;24.638;2023-02-22T15:16:49;2.27;;;1.23;;
10463;SDS011;5279;42.048;24.638;2023-02-22T15:19:20;3.07;;;1.40;;
10463;SDS011;5279;42.048;24.638;2023-02-22T15:21:51;3.03;;;1.50;;
10463;SDS011;5279;42.048;24.638;2023-02-22T15:24:20;2.07;;;1.40;;
10463;SDS011;5279;42.048;24.638;2023-02-22T15:26:48;7.40;;;1.70;;
10463;SDS011;5279;42.048;24.638;2023-02-22T15:29:15;2.40;;;1.30;;
10463;SDS011;5279;42.048;24.638;2023-02-22T15:31:44;3.00;;;1.40;;
10463;SDS011;5279;42.048;24.638;2023-02-22T15:34:22;3.27;;;1.70;;
10463;SDS011;5279;42.048;24.638;2023-02-22T15:36:52;1.63;;;1.33;;
10463;SDS011;5279;42.048;24.638;2023-02-22T15:39:21;1.70;;;1.40;;